Time;durP1;ratioP1;P1;durP2;ratioP2;P2;SDS_P1;SDS_P2;PMS_P1;PMS_P2;Temp;Humidity;BMP_temperature;BMP_pressure;BME280_temperature;BME280_humidity;BME280_pressure;Samples;Min_cycle;Max_cycle;Signal;HPM_P1;HPM_P2
2021/08/04 00:01:57;;;;;;;6.95;4.13;;;;;;;14.91;94.81;98877.03;5057742;28;20339;-64
2021/08/04 00:04:23;;;;;;;9.60;4.50;;;;;;;14.84;95.01;98878.16;5044829;28;20217;-64
2021/08/04 00:06:48;;;;;;;7.07;3.80;;;;;;;14.81;95.18;98883.56;5056128;28;20075;-64
2021/08/04 00:09:13;;;;;;;6.60;4.50;;;;;;;14.83;95.48;98887.00;5064177;28;20025;-64
2021/08/04 00:11:39;;;;;;;6.10;3.83;;;;;;;14.81;95.47;98886.22;5064409;28;20088;-64
2021/08/04 00:14:05;;;;;;;11.90;4.60;;;;;;;14.82;95.70;98882.63;5064643;28;20076;-64
2021/08/04 00:16:31;;;;;;;6.68;4.60;;;;;;;14.80;95.71;98892.41;5064619;28;20028;-64
2021/08/04 00:18:56;;;;;;;12.18;5.40;;;;;;;14.86;95.45;98881.59;5064556;28;20047;-64
2021/08/04 00:21:22;;;;;;;11.30;4.80;;;;;;;14.91;94.98;98883.19;5064512;28;20044;-64
2021/08/04 00:23:47;;;;;;;7.53;4.65;;;;;;;14.89;95.07;98884.16;5064404;28;20090;-64
2021/08/04 00:26:13;;;;;;;7.10;4.72;;;;;;;14.94;95.17;98880.44;5064455;28;20197;-64
2021/08/04 00:28:38;;;;;;;9.52;5.07;;;;;;;14.93;95.03;98883.13;5064423;28;20300;-64
2021/08/04 00:31:04;;;;;;;8.55;5.03;;;;;;;14.92;94.99;98881.41;5044994;28;20032;-64
2021/08/04 00:33:29;;;;;;;6.72;4.53;;;;;;;14.92;94.90;98882.28;5044362;28;20089;-64
2021/08/04 00:35:55;;;;;;;9.57;5.53;;;;;;;14.94;94.94;98879.59;5044344;28;20372;-64
2021/08/04 00:38:20;;;;;;;10.45;5.72;;;;;;;14.86;94.99;98871.00;5043859;28;20021;-64
2021/08/04 00:40:46;;;;;;;8.80;5.18;;;;;;;14.91;95.31;98872.59;5044249;28;20316;-64
2021/08/04 00:43:12;;;;;;;10.18;5.50;;;;;;;14.93;95.02;98872.53;5044231;28;20075;-64
2021/08/04 00:45:38;;;;;;;8.82;5.20;;;;;;;14.94;94.85;98879.59;5044133;28;20021;-64
2021/08/04 00:48:04;;;;;;;10.20;5.32;;;;;;;14.93;95.04;98873.41;5057795;28;20120;-64
2021/08/04 00:50:30;;;;;;;10.02;5.93;;;;;;;14.89;94.84;98871.78;5064349;28;20020;-64
2021/08/04 00:52:56;;;;;;;11.27;5.85;;;;;;;14.88;94.99;98863.88;5064068;28;20021;-64
2021/08/04 00:55:23;;;;;;;10.52;5.55;;;;;;;14.92;95.18;98868.16;5064284;28;20312;-64
2021/08/04 00:57:48;;;;;;;8.88;5.72;;;;;;;14.97;95.04;98866.25;5063976;28;20023;-64
2021/08/04 01:00:14;;;;;;;8.90;6.20;;;;;;;14.91;95.02;98869.94;5063785;28;20068;-64
2021/08/04 01:03:00;;;;;;;15.95;6.22;;;;;;;14.91;94.99;98975.09;5064073;28;20060;-64
2021/08/04 01:05:32;;;;;;;10.18;6.25;;;;;;;14.92;95.07;98952.97;5064237;28;20032;-64
2021/08/04 01:08:12;;;;;;;10.63;6.70;;;;;;;14.85;95.36;98933.75;5064114;28;20017;-64
2021/08/04 01:10:42;;;;;;;11.77;7.20;;;;;;;14.88;95.42;98916.88;5064137;28;20025;-64
2021/08/04 01:13:21;;;;;;;9.60;7.20;;;;;;;14.93;95.52;98921.13;5064111;28;20032;-64
2021/08/04 01:15:53;;;;;;;12.65;7.00;;;;;;;14.92;95.12;98913.22;5063332;28;20059;-64
2021/08/04 01:18:23;;;;;;;11.35;7.80;;;;;;;14.94;95.18;98922.00;5063798;28;20247;-64
2021/08/04 01:20:49;;;;;;;13.27;7.90;;;;;;;15.04;94.90;98924.28;5064244;28;20031;-64
2021/08/04 01:23:33;;;;;;;16.60;8.38;;;;;;;14.95;95.04;98910.47;5063923;28;20216;-64
2021/08/04 01:26:07;;;;;;;17.45;8.43;;;;;;;14.93;94.91;98914.94;5063887;28;20021;-64
2021/08/04 01:28:38;;;;;;;11.30;8.27;;;;;;;14.95;94.62;98890.16;5063876;28;20021;-64
2021/08/04 01:31:10;;;;;;;16.57;7.97;;;;;;;14.96;94.62;98888.34;5063878;28;20043;-64
2021/08/04 01:33:39;;;;;;;14.63;7.53;;;;;;;14.94;94.93;98890.19;5062827;28;20251;-64
2021/08/04 01:36:08;;;;;;;10.40;6.75;;;;;;;14.95;94.64;98887.50;5063798;28;20025;-64
2021/08/04 01:38:34;;;;;;;14.02;7.85;;;;;;;14.96;94.77;98888.34;5063832;28;20017;-64
2021/08/04 01:41:01;;;;;;;10.15;6.80;;;;;;;15.00;94.74;98890.84;5062356;28;20025;-64
2021/08/04 01:43:28;;;;;;;15.43;6.88;;;;;;;15.05;94.86;98898.66;5044017;28;20092;-64
2021/08/04 01:45:55;;;;;;;17.70;6.40;;;;;;;15.00;95.11;98888.19;5043728;28;20021;-64
2021/08/04 01:48:22;;;;;;;11.70;6.30;;;;;;;14.98;94.71;98889.16;5043792;28;20036;-64
2021/08/04 01:50:51;;;;;;;13.77;7.25;;;;;;;14.92;94.67;98876.13;5045523;28;20276;-64
2021/08/04 01:53:16;;;;;;;12.63;6.60;;;;;;;14.98;94.53;98884.75;5047623;28;20063;-64
2021/08/04 01:55:43;;;;;;;10.27;6.15;;;;;;;14.99;94.25;98877.63;5047582;28;20244;-64
2021/08/04 01:58:08;;;;;;;11.40;6.18;;;;;;;15.01;94.62;98870.50;5047516;28;20021;-64
2021/08/04 02:00:34;;;;;;;8.73;5.82;;;;;;;15.01;94.69;98875.81;5047296;28;20363;-64
2021/08/04 02:02:59;;;;;;;13.50;6.15;;;;;;;15.02;94.51;98872.25;5047327;28;20018;-64
2021/08/04 02:05:25;;;;;;;12.70;6.25;;;;;;;15.00;94.47;98860.84;5047319;28;20025;-64
2021/08/04 02:08:00;;;;;;;10.27;6.32;;;;;;;15.02;94.40;98861.63;5051013;28;20013;-64
2021/08/04 02:10:51;;;;;;;9.93;6.00;;;;;;;14.98;94.25;98860.00;5067360;28;20025;-64
2021/08/04 02:13:23;;;;;;;9.53;6.03;;;;;;;15.00;94.78;98852.88;5066568;28;20063;-64
2021/08/04 02:15:55;;;;;;;11.32;6.20;;;;;;;14.99;95.01;98845.81;5067190;28;20246;-64
2021/08/04 02:18:24;;;;;;;11.30;6.15;;;;;;;14.96;95.54;98848.59;5067053;28;20031;-64
2021/08/04 02:20:50;;;;;;;8.45;5.75;;;;;;;14.96;95.02;98845.94;5067007;28;20320;-64
2021/08/04 02:23:21;;;;;;;10.48;6.50;;;;;;;14.93;94.81;98846.03;5066962;28;20316;-64
2021/08/04 02:25:55;;;;;;;8.77;4.90;;;;;;;14.99;94.98;98843.19;5066884;28;20028;-64
2021/08/04 02:28:27;;;;;;;9.65;5.90;;;;;;;15.04;94.95;98859.81;5066956;28;20048;-64
2021/08/04 02:30:54;;;;;;;9.70;6.10;;;;;;;14.98;94.61;98833.50;5066881;28;20335;-64
2021/08/04 02:33:21;;;;;;;16.27;6.35;;;;;;;15.07;94.45;98842.00;5066885;28;20216;-64
2021/08/04 02:35:47;;;;;;;8.20;5.55;;;;;;;14.98;94.62;98828.19;5059035;28;20358;-64
2021/08/04 02:38:14;;;;;;;14.02;6.05;;;;;;;14.97;94.60;98831.78;5046839;28;20029;-64
2021/08/04 02:40:40;;;;;;;11.73;6.45;;;;;;;14.95;94.43;98829.19;5046780;28;20260;-64
2021/08/04 02:43:07;;;;;;;12.35;5.95;;;;;;;14.99;94.48;98837.88;5046671;28;20021;-64
2021/08/04 02:45:32;;;;;;;10.45;6.18;;;;;;;14.93;94.87;98831.00;5046610;28;20025;-64
2021/08/04 02:47:58;;;;;;;13.48;6.88;;;;;;;14.92;94.73;98820.44;5062309;28;20396;-64
2021/08/04 02:50:25;;;;;;;10.65;6.57;;;;;;;14.93;94.62;98824.81;5066286;28;20025;-64
2021/08/04 02:52:50;;;;;;;13.70;6.53;;;;;;;14.93;94.62;98819.53;5066260;28;20028;-64
2021/08/04 02:55:17;;;;;;;15.18;6.70;;;;;;;14.92;94.34;98828.41;5066400;28;20217;-64
2021/08/04 02:57:43;;;;;;;12.02;8.05;;;;;;;14.91;94.29;98821.38;5066156;28;20025;-64
2021/08/04 03:00:09;;;;;;;17.80;8.05;;;;;;;14.94;94.45;98821.28;5065932;28;20096;-64
2021/08/04 03:02:34;;;;;;;13.48;7.75;;;;;;;14.96;94.50;98819.44;5065414;28;20088;-64
2021/08/04 03:05:00;;;;;;;12.95;7.60;;;;;;;14.90;94.39;98883.22;5048573;28;20025;-64
2021/08/04 03:07:25;;;;;;;13.20;8.68;;;;;;;14.92;94.07;98825.75;5045997;28;20025;-64
2021/08/04 03:09:51;;;;;;;14.10;9.55;;;;;;;14.88;94.34;98826.78;5045948;28;20216;-64
2021/08/04 03:12:16;;;;;;;12.18;8.05;;;;;;;14.89;94.25;98828.50;5045895;28;20051;-64
2021/08/04 03:14:42;;;;;;;10.95;7.55;;;;;;;14.91;93.68;98842.59;5045886;28;20021;-64
2021/08/04 03:17:07;;;;;;;14.05;7.68;;;;;;;14.91;93.86;98832.81;5045830;28;20021;-64
2021/08/04 03:19:32;;;;;;;10.93;7.40;;;;;;;14.88;93.71;98834.72;5045783;28;20239;-64
2021/08/04 03:21:58;;;;;;;11.13;6.60;;;;;;;14.79;93.86;98829.72;5045743;28;20032;-64
2021/08/04 03:24:23;;;;;;;12.88;6.85;;;;;;;14.83;94.27;98834.00;5045580;28;20022;-64
2021/08/04 03:26:49;;;;;;;14.00;6.68;;;;;;;14.79;93.76;98832.38;5045651;28;20331;-64
2021/08/04 03:29:14;;;;;;;9.32;6.18;;;;;;;14.78;93.84;98826.22;5050608;28;20029;-64
2021/08/04 03:31:40;;;;;;;10.32;5.97;;;;;;;14.78;93.91;98830.66;5065522;28;20028;-64
2021/08/04 03:34:05;;;;;;;10.65;5.80;;;;;;;14.69;93.60;98828.31;5065484;28;20274;-64
2021/08/04 03:36:31;;;;;;;10.57;5.63;;;;;;;14.63;93.64;98825.84;5065121;28;20031;-64
2021/08/04 03:38:56;;;;;;;10.88;6.32;;;;;;;14.67;93.61;98832.78;5058225;28;20080;-64
2021/08/04 03:41:22;;;;;;;16.30;5.47;;;;;;;14.66;93.57;98831.06;5045381;28;20124;-64
2021/08/04 03:43:47;;;;;;;9.75;6.07;;;;;;;14.64;93.71;98827.56;5045322;28;20033;-64
2021/08/04 03:46:13;;;;;;;11.52;5.30;;;;;;;14.63;94.13;98825.84;5048088;28;20063;-64
2021/08/04 03:48:38;;;;;;;9.73;4.93;;;;;;;14.70;93.77;98832.69;5065167;28;20347;-64
2021/08/04 03:51:04;;;;;;;10.38;5.75;;;;;;;14.68;93.73;98826.59;5065147;28;20048;-64
2021/08/04 03:53:30;;;;;;;7.68;4.72;;;;;;;14.67;93.48;98822.19;5065055;28;20025;-64
2021/08/04 03:55:55;;;;;;;8.00;4.70;;;;;;;14.62;93.83;98824.13;5065015;28;20051;-64
2021/08/04 03:58:21;;;;;;;7.97;4.75;;;;;;;14.61;94.26;98825.03;5065000;28;20308;-64
2021/08/04 04:00:46;;;;;;;8.18;4.65;;;;;;;14.61;94.55;98827.66;5064781;28;20041;-64
2021/08/04 04:03:12;;;;;;;10.13;5.05;;;;;;;14.63;94.59;98824.09;5064832;28;20084;-64
2021/08/04 04:05:38;;;;;;;7.80;4.53;;;;;;;14.56;94.39;98824.31;5064735;28;20021;-64
2021/08/04 04:08:04;;;;;;;14.10;4.40;;;;;;;14.60;94.36;98825.94;5064692;28;20053;-64
2021/08/04 04:10:30;;;;;;;10.40;5.15;;;;;;;14.45;93.97;98816.72;5063662;28;20092;-64
2021/08/04 04:12:55;;;;;;;8.75;5.13;;;;;;;14.51;94.39;98895.09;5043725;28;20032;-64
2021/08/04 04:15:20;;;;;;;9.40;5.45;;;;;;;14.49;94.26;98849.28;5055518;28;20059;-64
2021/08/04 04:17:46;;;;;;;7.95;5.25;;;;;;;14.53;94.46;98822.63;5062584;28;20020;-64
2021/08/04 04:20:12;;;;;;;6.72;4.75;;;;;;;14.56;94.31;98826.97;5062519;28;20021;-64
2021/08/04 04:22:38;;;;;;;7.28;4.82;;;;;;;14.50;94.36;98824.50;5062564;28;20029;-64
2021/08/04 04:25:05;;;;;;;7.47;4.70;;;;;;;14.57;94.41;98826.03;5063069;28;20084;-64
2021/08/04 04:27:30;;;;;;;11.52;4.60;;;;;;;14.55;94.51;98825.22;5049897;28;20308;-64
2021/08/04 04:29:56;;;;;;;12.07;5.28;;;;;;;14.52;94.62;98820.00;5043535;28;20029;-64
2021/08/04 04:32:22;;;;;;;9.32;5.68;;;;;;;14.54;94.59;98834.97;5043794;28;20022;-64
2021/08/04 04:34:48;;;;;;;8.15;5.20;;;;;;;14.57;94.26;98826.03;5044842;28;20309;-64
2021/08/04 04:37:13;;;;;;;7.05;4.68;;;;;;;14.58;94.21;98838.38;5062944;28;20040;-64
2021/08/04 04:39:38;;;;;;;9.32;5.15;;;;;;;14.62;94.23;98837.38;5053572;28;20092;-64
2021/08/04 04:42:04;;;;;;;10.70;4.93;;;;;;;14.65;94.49;98840.78;5046442;28;20028;-64
2021/08/04 04:44:29;;;;;;;12.90;5.22;;;;;;;14.63;94.68;98836.44;5049110;28;20025;-64
2021/08/04 04:46:55;;;;;;;9.50;4.53;;;;;;;14.71;94.62;98837.94;5055005;28;20018;-64
2021/08/04 04:49:20;;;;;;;8.60;4.97;;;;;;;14.77;94.35;98839.50;5044176;28;20048;-64
2021/08/04 04:51:46;;;;;;;8.93;5.20;;;;;;;14.74;93.93;98839.59;5044122;28;20045;-64
2021/08/04 04:54:11;;;;;;;7.32;4.88;;;;;;;14.75;93.69;98836.06;5044085;28;20230;-64
2021/08/04 04:56:37;;;;;;;11.75;4.78;;;;;;;14.78;93.53;98838.59;5044078;28;20033;-64
2021/08/04 04:59:02;;;;;;;9.43;4.93;;;;;;;14.82;93.57;98838.47;5044084;28;20029;-64
2021/08/04 05:01:27;;;;;;;8.73;5.05;;;;;;;14.80;93.14;98839.41;5043848;28;20104;-64
2021/08/04 05:03:53;;;;;;;9.32;4.88;;;;;;;14.83;93.01;98837.53;5043838;28;20088;-64
2021/08/04 05:06:18;;;;;;;10.70;4.70;;;;;;;14.85;93.12;98845.44;5043926;28;20083;-64
2021/08/04 05:08:44;;;;;;;10.93;4.55;;;;;;;14.88;92.77;98847.97;5043900;28;20036;-64
2021/08/04 05:11:09;;;;;;;14.07;4.75;;;;;;;14.89;93.13;98844.41;5043868;28;20083;-64
2021/08/04 05:13:38;;;;;;;8.15;5.07;;;;;;;14.85;93.03;98841.00;5043906;28;20259;-64
2021/08/04 05:16:07;;;;;;;14.23;4.70;;;;;;;14.88;93.04;98845.34;5043844;28;20017;-64
2021/08/04 05:18:32;;;;;;;8.20;4.70;;;;;;;14.88;92.42;98847.97;5043849;28;20025;-64
2021/08/04 05:20:58;;;;;;;7.25;4.15;;;;;;;14.92;92.75;98845.19;5043786;28;20029;-64
2021/08/04 05:23:24;;;;;;;8.50;4.80;;;;;;;14.90;92.54;98846.13;5043853;28;20372;-64
2021/08/04 05:25:49;;;;;;;7.20;4.30;;;;;;;14.92;92.29;98849.59;5047344;28;20022;-64
2021/08/04 05:28:15;;;;;;;8.00;4.55;;;;;;;14.90;92.28;98846.13;5047841;28;20080;-64
2021/08/04 05:30:40;;;;;;;7.50;4.93;;;;;;;14.89;92.24;98850.59;5047830;28;20347;-64
2021/08/04 05:33:06;;;;;;;7.88;4.43;;;;;;;14.99;92.25;98845.81;5047735;28;20025;-64
2021/08/04 05:35:31;;;;;;;6.63;4.47;;;;;;;15.07;91.45;98849.94;5047973;28;20021;-64
2021/08/04 05:37:57;;;;;;;10.57;4.25;;;;;;;15.18;91.93;98852.25;5047674;28;20021;-64
2021/08/04 05:40:22;;;;;;;8.43;4.63;;;;;;;15.32;90.83;98855.31;5047600;28;20025;-64
2021/08/04 05:42:48;;;;;;;13.48;5.13;;;;;;;15.38;90.98;98849.81;5047580;28;20108;-64
2021/08/04 05:45:13;;;;;;;13.10;4.40;;;;;;;15.48;90.64;98861.84;5047479;28;20045;-64
2021/08/04 05:47:39;;;;;;;10.50;4.90;;;;;;;15.57;90.19;98864.16;5047498;28;20029;-64
2021/08/04 05:50:05;;;;;;;10.57;5.25;;;;;;;15.62;89.91;98870.16;5047438;28;20216;-64
2021/08/04 05:52:30;;;;;;;74.35;7.40;;;;;;;15.73;89.25;98875.09;5046275;28;20022;-64
2021/08/04 05:54:56;;;;;;;10.63;5.07;;;;;;;15.68;88.91;98869.94;5047349;28;20075;-64
2021/08/04 05:57:21;;;;;;;10.10;4.93;;;;;;;15.71;88.89;98864.53;5047292;28;20056;-64
2021/08/04 05:59:47;;;;;;;9.40;5.03;;;;;;;15.94;88.79;98867.19;5047096;28;20329;-64
2021/08/04 06:02:12;;;;;;;11.23;5.18;;;;;;;16.15;88.33;98869.06;5047196;28;20317;-64
2021/08/04 06:04:37;;;;;;;12.63;4.60;;;;;;;16.24;86.99;98871.38;5047136;28;20044;-64
2021/08/04 06:07:03;;;;;;;6.93;4.47;;;;;;;16.33;87.32;98876.31;5047143;28;20271;-64
2021/08/04 06:09:30;;;;;;;11.18;4.43;;;;;;;16.44;85.50;98878.59;5047175;28;20095;-64
2021/08/04 06:11:56;;;;;;;6.53;3.80;;;;;;;16.62;85.31;98868.13;5047037;28;20021;-64
2021/08/04 06:14:22;;;;;;;8.20;3.97;;;;;;;16.75;84.47;98865.84;5046977;28;20032;-64
2021/08/04 06:16:47;;;;;;;7.35;4.38;;;;;;;16.83;83.76;98867.25;5046952;28;20032;-64
2021/08/04 06:19:12;;;;;;;6.38;4.28;;;;;;;16.86;84.58;98867.13;5046965;28;20041;-64
2021/08/04 06:21:38;;;;;;;11.13;4.40;;;;;;;16.86;83.09;98859.16;5046975;28;20343;-64
2021/08/04 06:24:04;;;;;;;6.55;4.18;;;;;;;17.06;82.80;98880.47;5046763;28;20024;-64
2021/08/04 06:26:29;;;;;;;6.50;3.90;;;;;;;17.22;82.40;98878.06;5046801;28;20064;-64
2021/08/04 06:28:55;;;;;;;5.57;4.22;;;;;;;17.40;82.39;98879.06;5046778;28;20088;-64
2021/08/04 06:31:20;;;;;;;8.18;3.40;;;;;;;17.73;79.87;98889.16;5046736;28;20332;-64
2021/08/04 06:33:45;;;;;;;6.90;3.70;;;;;;;17.96;79.08;98888.13;5046699;28;20059;-64
2021/08/04 06:36:11;;;;;;;715.65;52.83;;;;;;;18.11;78.48;98887.44;5045675;28;20019;-64
2021/08/04 06:38:37;;;;;;;8.50;4.32;;;;;;;18.28;78.29;98892.84;5046579;28;20021;-64
2021/08/04 06:41:02;;;;;;;10.02;3.92;;;;;;;18.55;77.27;98896.94;5046542;28;20025;-64
2021/08/04 06:43:28;;;;;;;6.85;3.90;;;;;;;19.50;75.79;98951.84;5046497;28;20048;-64
2021/08/04 06:45:53;;;;;;;6.00;4.18;;;;;;;20.02;70.90;98936.66;5046402;28;20025;-64
2021/08/04 06:48:18;;;;;;;7.57;4.03;;;;;;;21.01;68.69;98937.44;5046422;28;20151;-64
2021/08/04 06:50:44;;;;;;;6.35;3.55;;;;;;;21.54;67.54;98920.13;5046378;28;20021;-64
2021/08/04 06:53:10;;;;;;;5.50;3.50;;;;;;;22.58;62.60;99220.47;5046298;28;20024;-64
2021/08/04 06:55:36;;;;;;;8.27;3.42;;;;;;;22.71;63.04;99095.34;5046510;28;20316;-64
2021/08/04 06:58:02;;;;;;;41.65;11.18;;;;;;;21.98;64.91;99168.50;5046172;28;20017;-64
2021/08/04 07:00:27;;;;;;;6.07;3.40;;;;;;;21.25;65.69;99003.00;5046044;28;20068;-64
2021/08/04 07:02:53;;;;;;;6.75;3.33;;;;;;;22.24;63.94;99041.00;5046078;28;20018;-64
2021/08/04 07:05:18;;;;;;;4.68;3.38;;;;;;;21.81;64.95;99048.00;5046027;28;20049;-64
2021/08/04 07:07:45;;;;;;;6.38;3.28;;;;;;;22.08;64.42;99041.03;5046049;28;20028;-64
2021/08/04 07:10:12;;;;;;;5.95;2.95;;;;;;;22.87;62.38;100530.81;5045994;28;20024;-64
2021/08/04 07:12:37;;;;;;;7.00;3.33;;;;;;;22.42;60.49;99381.44;5046018;28;20236;-64
2021/08/04 07:15:04;;;;;;;5.28;3.10;;;;;;;22.36;62.65;99386.25;5045896;28;20022;-64
2021/08/04 07:17:40;;;;;;;5.85;3.25;;;;;;;22.77;62.22;99205.88;5045814;28;20025;-64
2021/08/04 07:20:07;;;;;;;4.28;3.20;;;;;;;23.25;59.48;99132.22;5045864;28;20092;-64
2021/08/04 07:22:32;;;;;;;13.75;3.90;;;;;;;23.25;61.12;99124.19;5045809;28;20037;-64
2021/08/04 07:24:57;;;;;;;6.07;3.33;;;;;;;22.85;60.51;99458.63;5045644;28;20084;-64
2021/08/04 07:27:23;;;;;;;6.05;3.65;;;;;;;23.40;61.12;99369.53;5045676;28;20029;-64
2021/08/04 07:29:48;;;;;;;5.28;3.03;;;;;;;24.11;57.70;99305.03;5045644;28;20032;-64
2021/08/04 07:32:13;;;;;;;6.50;3.22;;;;;;;24.43;57.89;101893.84;5045537;28;20032;-64
2021/08/04 07:34:39;;;;;;;4.85;3.20;;;;;;;23.58;59.60;99546.72;5045530;28;20076;-64
2021/08/04 07:37:05;;;;;;;9.95;3.53;;;;;;;23.75;59.11;99511.66;5045492;28;20025;-64
2021/08/04 07:39:30;;;;;;;6.68;3.15;;;;;;;24.19;56.58;99468.66;5045390;28;20021;-64
2021/08/04 07:41:55;;;;;;;10.88;3.42;;;;;;;23.36;59.29;101204.44;5045503;28;20026;-64
2021/08/04 07:44:21;;;;;;;4.35;2.92;;;;;;;23.79;56.18;101043.41;5045248;28;20214;-64
2021/08/04 07:46:46;;;;;;;5.18;2.72;;;;;;;22.70;58.93;99684.09;5045225;28;20315;-64
2021/08/04 07:49:12;;;;;;;6.95;3.55;;;;;;;23.59;56.42;99553.81;5045197;28;20025;-64
2021/08/04 07:51:37;;;;;;;5.80;2.70;;;;;;;24.51;56.07;99465.72;5045168;28;20021;-64
2021/08/04 07:54:02;;;;;;;6.60;2.97;;;;;;;24.95;52.75;101039.97;5045102;28;20025;-64
2021/08/04 07:56:28;;;;;;;4.57;2.97;;;;;;;25.17;52.04;100229.50;5045160;28;20025;-64
2021/08/04 07:58:53;;;;;;;5.90;2.58;;;;;;;25.31;53.28;99711.22;5045011;28;20032;-64
2021/08/04 08:01:19;;;;;;;3.60;2.53;;;;;;;25.44;49.60;99549.59;5044818;28;20045;-64
2021/08/04 08:03:46;;;;;;;6.45;3.05;;;;;;;25.42;51.07;99325.06;5044902;28;20052;-64
2021/08/04 08:06:11;;;;;;;4.50;2.95;;;;;;;25.21;52.03;99338.13;5044850;28;20311;-64
2021/08/04 08:08:36;;;;;;;7.07;2.63;;;;;;;25.42;51.53;99325.06;5044861;28;20022;-64
2021/08/04 08:11:03;;;;;;;5.03;2.45;;;;;;;26.27;48.21;99709.50;5044842;28;20025;-64
2021/08/04 08:13:29;;;;;;;3.63;2.60;;;;;;;26.71;47.12;99510.25;5045092;28;20189;-64
2021/08/04 08:15:55;;;;;;;7.72;2.95;;;;;;;27.06;48.38;99419.38;5044749;28;20029;-64
2021/08/04 08:18:20;;;;;;;4.40;2.70;;;;;;;27.40;48.06;99206.84;5044682;28;20029;-64
2021/08/04 08:20:46;;;;;;;4.85;2.35;;;;;;;27.17;46.84;99222.13;5044637;28;20021;-64
2021/08/04 08:23:12;;;;;;;6.97;2.83;;;;;;;27.51;47.09;99223.97;5044644;28;20051;-64
2021/08/04 08:25:38;;;;;;;3.88;2.60;;;;;;;27.27;44.94;99074.47;5044455;28;20037;-64
2021/08/04 08:28:04;;;;;;;4.57;2.22;;;;;;;27.52;44.38;99076.09;5044573;28;20029;-64
2021/08/04 08:30:29;;;;;;;6.55;2.83;;;;;;;27.25;46.32;99741.50;5044527;28;20036;-64
2021/08/04 08:32:55;;;;;;;2.45;1.90;;;;;;;27.49;45.43;99460.34;5044380;28;20244;-64
2021/08/04 08:35:21;;;;;;;2.88;2.28;;;;;;;27.86;41.23;99281.56;5044386;28;20063;-64
2021/08/04 08:37:48;;;;;;;2.63;1.92;;;;;;;26.74;46.77;99265.06;5044641;28;20217;-64
2021/08/04 08:40:15;;;;;;;65.90;8.63;;;;;;;25.43;47.36;99217.16;5044323;28;20415;-64
2021/08/04 08:42:42;;;;;;;3.60;2.13;;;;;;;24.69;49.06;99130.75;5044335;28;20029;-65
2021/08/04 08:45:09;;;;;;;3.30;2.10;;;;;;;23.47;51.13;99043.09;5044190;28;20029;-65
2021/08/04 08:47:34;;;;;;;5.07;2.25;;;;;;;22.88;55.49;99055.75;5044206;28;20025;-65
2021/08/04 08:50:02;;;;;;;3.88;2.70;;;;;;;22.49;57.02;99009.94;5044211;28;20022;-65
2021/08/04 08:52:28;;;;;;;4.65;2.50;;;;;;;24.05;53.36;99014.97;5044140;28;20028;-65
2021/08/04 08:54:53;;;;;;;4.07;2.00;;;;;;;24.94;49.34;99006.91;5044091;28;20025;-65
2021/08/04 08:57:19;;;;;;;4.20;2.13;;;;;;;25.50;48.56;99015.41;5044091;28;20317;-65
2021/08/04 08:59:44;;;;;;;4.75;2.10;;;;;;;24.97;48.27;98990.47;5043391;28;20052;-65
2021/08/04 09:02:09;;;;;;;3.40;1.90;;;;;;;24.72;48.15;98990.53;5044023;28;20345;-65
2021/08/04 09:04:35;;;;;;;3.50;2.30;;;;;;;25.70;47.35;99006.69;5043933;28;20032;-65
2021/08/04 09:07:02;;;;;;;2.70;1.67;;;;;;;26.17;44.22;98979.72;5043995;28;20021;-65
2021/08/04 09:09:33;;;;;;;6.97;2.08;;;;;;;26.40;44.06;98958.06;5044076;28;20033;-65
2021/08/04 09:12:01;;;;;;;4.97;2.03;;;;;;;26.75;45.84;98950.78;5044057;28;20022;-65
2021/08/04 09:14:32;;;;;;;3.85;1.80;;;;;;;26.98;43.90;100535.31;5043898;28;20026;-65
2021/08/04 09:17:12;;;;;;;4.85;2.03;;;;;;;27.37;42.51;99515.34;5043890;28;20049;-65
2021/08/04 09:19:40;;;;;;;3.67;1.95;;;;;;;27.20;46.19;99435.44;5043905;28;20088;-65
2021/08/04 09:22:27;;;;;;;6.07;1.92;;;;;;;26.04;47.25;99370.16;5043820;28;20028;-65
2021/08/04 09:25:00;;;;;;;2.85;2.00;;;;;;;26.36;44.54;99275.13;5043742;28;20321;-65
2021/08/04 09:27:47;;;;;;;4.38;2.20;;;;;;;24.74;49.35;99104.34;5043750;28;20028;-65
2021/08/04 09:30:25;;;;;;;4.82;1.92;;;;;;;23.91;49.31;99531.31;5044011;28;20036;-65
2021/08/04 09:32:51;;;;;;;6.35;1.95;;;;;;;23.83;49.40;99321.16;5043694;28;20018;-65
2021/08/04 09:35:20;;;;;;;5.95;2.10;;;;;;;23.54;52.02;99195.75;5043621;28;20209;-65
2021/08/04 09:37:47;;;;;;;3.60;2.00;;;;;;;23.01;52.58;99174.84;5043692;28;20044;-65
2021/08/04 09:40:18;;;;;;;2.92;1.88;;;;;;;23.16;53.03;99076.41;5043603;28;20028;-64
2021/08/04 09:42:54;;;;;;;4.07;2.20;;;;;;;23.15;52.24;99080.03;5043688;28;20029;-64
2021/08/04 09:45:36;;;;;;;3.33;1.83;;;;;;;23.23;51.94;99077.78;5043580;28;20052;-64
2021/08/04 09:48:11;;;;;;;4.00;2.40;;;;;;;24.84;50.15;101389.78;5043657;28;20021;-64
2021/08/04 09:50:57;;;;;;;3.20;1.77;;;;;;;24.83;46.90;99359.56;5043554;28;20026;-64
2021/08/04 09:53:30;;;;;;;4.57;2.00;;;;;;;24.27;48.64;99381.13;5043535;28;20025;-64
2021/08/04 09:56:09;;;;;;;4.15;2.20;;;;;;;23.89;51.21;99331.50;5043483;28;20021;-64
2021/08/04 09:58:36;;;;;;;4.25;2.33;;;;;;;23.60;53.86;99308.25;5043466;28;20018;-64
2021/08/04 10:01:03;;;;;;;4.22;2.38;;;;;;;23.41;51.93;99247.69;5043360;28;20068;-64
2021/08/04 10:03:31;;;;;;;9.18;2.80;;;;;;;22.92;54.12;99120.88;5043454;28;20255;-64
2021/08/04 10:05:56;;;;;;;6.38;2.50;;;;;;;22.66;55.84;99092.09;5043376;28;20212;-64
2021/08/04 10:08:22;;;;;;;3.05;2.00;;;;;;;22.60;53.23;99038.78;5043405;28;20021;-64
2021/08/04 10:10:50;;;;;;;3.97;1.92;;;;;;;22.41;53.77;99032.78;5043511;28;20025;-64
2021/08/04 10:13:18;;;;;;;3.47;1.98;;;;;;;22.63;52.34;99041.28;5047072;28;20017;-64
2021/08/04 10:15:49;;;;;;;3.67;2.03;;;;;;;22.31;53.08;99028.94;5047016;28;20025;-64
2021/08/04 10:18:17;;;;;;;3.40;2.25;;;;;;;22.23;54.88;99007.06;5047334;28;20021;-64
2021/08/04 10:20:44;;;;;;;4.05;2.08;;;;;;;22.32;55.50;99006.50;5046923;28;20021;-64
2021/08/04 10:23:13;;;;;;;2.45;1.85;;;;;;;23.37;57.33;98951.47;5046943;28;20029;-64
2021/08/04 10:25:40;;;;;;;4.15;1.83;;;;;;;24.37;49.62;98916.78;5046771;28;20027;-64
2021/08/04 10:28:06;;;;;;;3.33;1.95;;;;;;;24.96;48.96;98918.75;5046840;28;20032;-64
2021/08/04 10:30:32;;;;;;;4.40;2.25;;;;;;;25.35;47.10;98892.56;5046764;28;20374;-64
2021/08/04 10:32:58;;;;;;;5.13;2.10;;;;;;;25.38;48.69;98892.34;5046697;28;20112;-64
2021/08/04 10:35:25;;;;;;;3.75;1.70;;;;;;;25.62;46.39;99985.25;5046683;28;20025;-64
2021/08/04 10:37:52;;;;;;;2.97;2.03;;;;;;;24.69;46.86;99189.97;5046623;28;20021;-64
2021/08/04 10:40:18;;;;;;;2.92;1.77;;;;;;;24.43;49.72;99128.91;5046614;28;20035;-64
2021/08/04 10:42:45;;;;;;;2.67;1.92;;;;;;;23.13;52.29;99081.97;5046499;28;20094;-64
2021/08/04 10:45:32;;;;;;;5.50;1.95;;;;;;;23.31;52.80;99048.56;5046421;28;20025;-64
2021/08/04 10:48:18;;;;;;;2.42;1.92;;;;;;;23.60;50.53;99007.25;5046456;28;20051;-64
2021/08/04 10:51:19;;;;;;;2.47;2.00;;;;;;;24.48;48.96;98959.91;5046369;28;20305;-64
2021/08/04 10:54:02;;;;;;;2.08;1.65;;;;;;;24.35;49.71;98936.66;5046309;28;20017;-64
2021/08/04 10:56:34;;;;;;;4.38;2.10;;;;;;;24.35;49.89;98921.38;5046547;28;20056;-64
2021/08/04 10:59:08;;;;;;;4.55;2.10;;;;;;;23.83;51.01;98880.25;5046264;28;20217;-64
2021/08/04 11:01:37;;;;;;;3.45;2.00;;;;;;;24.44;49.79;98877.69;5046039;28;20045;-64
2021/08/04 11:04:10;;;;;;;3.13;1.70;;;;;;;24.04;48.75;98862.63;5046057;28;20021;-64
2021/08/04 11:07:08;;;;;;;2.67;1.70;;;;;;;23.64;49.76;98846.66;5046212;28;20075;-64
2021/08/04 11:09:38;;;;;;;2.67;1.77;;;;;;;23.72;53.44;98850.53;5045968;28;20041;-64
2021/08/04 11:12:16;;;;;;;4.07;1.98;;;;;;;23.44;53.78;98834.56;5045995;28;20051;-64
2021/08/04 11:14:49;;;;;;;4.28;1.80;;;;;;;23.24;52.87;98822.50;5046268;28;20049;-64
2021/08/04 11:17:20;;;;;;;3.72;2.10;;;;;;;22.78;56.60;98806.84;5045874;28;20025;-64
2021/08/04 11:19:58;;;;;;;2.92;2.15;;;;;;;22.88;52.53;98807.97;5045845;28;20112;-64
2021/08/04 11:22:30;;;;;;;3.38;2.13;;;;;;;22.94;53.50;98796.81;5045399;28;20028;-64
2021/08/04 11:25:17;;;;;;;5.05;1.83;;;;;;;23.18;55.54;98803.22;5045693;28;20021;-64
2021/08/04 11:27:42;;;;;;;3.53;1.83;;;;;;;22.94;51.10;98804.88;5048618;28;20418;-64
2021/08/04 11:30:10;;;;;;;3.90;2.17;;;;;;;23.19;54.22;100680.00;5045630;28;20025;-64
2021/08/04 11:32:36;;;;;;;3.10;1.65;;;;;;;23.85;47.35;99222.44;5045579;28;20087;-64